Shepardsville, Indiana
Current Conditions -  °F | °C
As of 6:53 AM on Friday 19 Dec 2014 (Local Time) from KHUF Reporting Station
Clear Clear  
Wind Chill: -6°   Ceiling: Unl
Heat Index: -6°   Visibility: 8mi
Dew Point: -7°   Wind: 3mph
Humidity: 89%   Direction: 350°N
Pressure: 30.29"   Gusts: NA
Location:  39.6°N, 87.42°W
Report Text: KHUF 191153Z 35003KT 8SM CLR M06/M07 A3029 RMK AO2 SLP266 T10561072 11022 21056 50003
Loading
Personal Weather Stations






























Interactive Weather Map New forecast layout! Learn more

10-Day Weather Forecast

Advertisements
Track Severe Weather on mobile